Time;durP1;ratioP1;P1;durP2;ratioP2;P2;SDS_P1;SDS_P2;PMS_P1;PMS_P2;Temp;Humidity;BMP_temperature;BMP_pressure;BME280_temperature;BME280_humidity;BME280_pressure;Samples;Min_cycle;Max_cycle;Signal;HPM_P1;HPM_P2
2023/02/28 00:02:24;;;;;;;16.73;12.52;;;;;;;;;;5011832;28;20453;-57
2023/02/28 00:04:52;;;;;;;14.57;11.02;;;;;;;;;;4978235;28;20088;-57
2023/02/28 00:07:18;;;;;;;14.90;10.38;;;;;;;;;;5011155;28;20371;-57
2023/02/28 00:09:43;;;;;;;14.60;9.38;;;;;;;;;;5011976;28;20091;-57
2023/02/28 00:12:10;;;;;;;11.10;8.73;;;;;;;;;;5012181;28;20029;-58
2023/02/28 00:14:38;;;;;;;16.02;9.95;;;;;;;;;;4992433;28;20042;-57
2023/02/28 00:17:04;;;;;;;10.85;7.80;;;;;;;;;;5012105;28;20092;-58
2023/02/28 00:19:30;;;;;;;10.65;7.47;;;;;;;;;;5012155;28;20030;-57
2023/02/28 00:21:55;;;;;;;9.88;7.40;;;;;;;;;;5011868;28;20767;-62
2023/02/28 00:24:20;;;;;;;14.35;8.02;;;;;;;;;;5011735;28;20046;-62
2023/02/28 00:26:46;;;;;;;11.95;8.32;;;;;;;;;;5010766;28;20045;-62
2023/02/28 00:29:11;;;;;;;12.10;7.78;;;;;;;;;;5002698;28;20510;-62
2023/02/28 00:31:36;;;;;;;9.73;7.35;;;;;;;;;;4973456;28;20122;-62
2023/02/28 00:34:02;;;;;;;9.50;6.80;;;;;;;;;;4973911;28;20115;-61
2023/02/28 00:36:29;;;;;;;11.88;7.68;;;;;;;;;;4973496;28;20039;-62
2023/02/28 00:38:55;;;;;;;12.63;7.68;;;;;;;;;;4973889;28;20125;-57
2023/02/28 00:41:20;;;;;;;11.82;7.88;;;;;;;;;;4991143;28;20043;-61
2023/02/28 00:43:46;;;;;;;12.30;8.38;;;;;;;;;;4978565;28;20030;-61
2023/02/28 00:46:12;;;;;;;11.95;7.78;;;;;;;;;;5011363;28;20042;-61
2023/02/28 00:48:37;;;;;;;11.32;7.68;;;;;;;;;;4979217;28;20045;-61
2023/02/28 00:51:02;;;;;;;11.32;7.43;;;;;;;;;;4958237;28;20074;-61
2023/02/28 00:53:28;;;;;;;11.63;7.55;;;;;;;;;;4974092;28;20045;-61
2023/02/28 00:55:56;;;;;;;13.65;7.50;;;;;;;;;;4974424;28;20034;-61
2023/02/28 00:58:21;;;;;;;10.25;7.15;;;;;;;;;;4991493;28;20027;-61
2023/02/28 01:00:48;;;;;;;9.75;6.75;;;;;;;;;;4991622;28;20046;-61
2023/02/28 01:03:14;;;;;;;11.23;7.20;;;;;;;;;;4992232;28;20700;-61
2023/02/28 01:05:41;;;;;;;10.20;6.85;;;;;;;;;;4973959;28;20030;-61
2023/02/28 01:08:06;;;;;;;8.20;6.43;;;;;;;;;;4991458;28;20495;-61
2023/02/28 01:10:33;;;;;;;11.18;7.15;;;;;;;;;;4991492;28;20046;-61
2023/02/28 01:12:58;;;;;;;10.75;7.00;;;;;;;;;;4973916;28;20097;-61
2023/02/28 01:15:24;;;;;;;10.02;7.55;;;;;;;;;;4991221;28;20042;-61
2023/02/28 01:17:50;;;;;;;11.38;8.07;;;;;;;;;;4991258;28;20126;-61
2023/02/28 01:20:15;;;;;;;11.05;7.50;;;;;;;;;;4991233;28;20475;-61
2023/02/28 01:22:41;;;;;;;12.57;8.27;;;;;;;;;;4991033;28;20049;-61
2023/02/28 01:25:07;;;;;;;11.75;7.15;;;;;;;;;;4991164;28;20471;-61
2023/02/28 01:27:33;;;;;;;11.57;7.57;;;;;;;;;;4990486;28;20049;-61
2023/02/28 01:29:58;;;;;;;9.80;6.93;;;;;;;;;;4991525;28;20049;-61
2023/02/28 01:32:23;;;;;;;10.13;6.93;;;;;;;;;;4974187;28;20030;-61
2023/02/28 01:34:49;;;;;;;9.20;6.78;;;;;;;;;;4991582;28;20057;-61
2023/02/28 01:37:14;;;;;;;9.07;6.88;;;;;;;;;;4973891;28;20034;-61
2023/02/28 01:39:42;;;;;;;11.10;7.05;;;;;;;;;;4958038;28;20035;-61
2023/02/28 01:42:11;;;;;;;12.50;7.25;;;;;;;;;;4995754;28;20047;-57
2023/02/28 01:44:55;;;;;;;12.32;7.25;;;;;;;;;;5014738;28;20052;-57
2023/02/28 01:47:22;;;;;;;9.93;6.93;;;;;;;;;;4996614;28;20065;-57
2023/02/28 01:49:47;;;;;;;7.90;6.25;;;;;;;;;;4996880;28;20569;-57
2023/02/28 01:52:17;;;;;;;10.93;6.55;;;;;;;;;;5014629;28;20125;-56
2023/02/28 01:54:44;;;;;;;10.05;6.75;;;;;;;;;;4994032;28;20050;-57
2023/02/28 01:57:13;;;;;;;8.60;6.60;;;;;;;;;;4994346;28;20058;-56
2023/02/28 01:59:46;;;;;;;10.98;6.55;;;;;;;;;;4977578;28;20042;-56
2023/02/28 02:02:12;;;;;;;10.52;6.72;;;;;;;;;;4977259;28;20042;-56
2023/02/28 02:04:40;;;;;;;9.93;6.35;;;;;;;;;;4994013;28;20137;-56
2023/02/28 02:07:06;;;;;;;11.35;6.72;;;;;;;;;;4994559;28;20047;-56
2023/02/28 02:09:31;;;;;;;9.88;6.68;;;;;;;;;;4977561;28;20045;-57
2023/02/28 02:11:57;;;;;;;12.77;7.25;;;;;;;;;;4997092;28;20057;-56
2023/02/28 02:14:28;;;;;;;12.85;8.43;;;;;;;;;;5006360;28;20588;-56
2023/02/28 02:17:23;;;;;;;16.85;9.45;;;;;;;;;;5010800;28;20061;-56
2023/02/28 02:20:08;;;;;;;16.00;9.25;;;;;;;;;;4949936;28;20047;-61
2023/02/28 02:22:36;;;;;;;17.38;10.10;;;;;;;;;;4975054;28;20070;-61
2023/02/28 02:25:17;;;;;;;18.30;10.73;;;;;;;;;;4994233;28;20045;-61
2023/02/28 02:27:45;;;;;;;31.02;14.45;;;;;;;;;;4995764;28;20062;-61
2023/02/28 02:30:14;;;;;;;22.55;12.63;;;;;;;;;;4978459;28;20490;-61
2023/02/28 02:32:58;;;;;;;15.27;9.50;;;;;;;;;;4994173;28;20037;-60
2023/02/28 02:35:34;;;;;;;9.82;7.15;;;;;;;;;;4976358;28;20844;-61
2023/02/28 02:38:02;;;;;;;8.85;6.13;;;;;;;;;;4993920;28;20502;-62
2023/02/28 02:40:54;;;;;;;12.68;6.72;;;;;;;;;;4981052;28;20034;-62
2023/02/28 02:43:24;;;;;;;10.70;7.18;;;;;;;;;;5009345;28;20049;-62
2023/02/28 02:45:52;;;;;;;10.90;6.57;;;;;;;;;;4995228;28;20037;-62
2023/02/28 02:48:19;;;;;;;10.65;7.13;;;;;;;;;;4995840;28;20153;-62
2023/02/28 02:50:46;;;;;;;12.07;6.82;;;;;;;;;;4979780;28;20041;-62
2023/02/28 02:53:12;;;;;;;10.35;6.80;;;;;;;;;;4978842;28;20038;-57
2023/02/28 02:55:40;;;;;;;9.68;7.05;;;;;;;;;;4994236;28;20048;-56
2023/02/28 02:58:08;;;;;;;10.50;6.78;;;;;;;;;;4995703;28;20044;-56
2023/02/28 03:00:37;;;;;;;12.18;8.27;;;;;;;;;;4995716;28;20069;-56
2023/02/28 03:03:02;;;;;;;43.10;18.75;;;;;;;;;;5013612;28;20045;-57
2023/02/28 03:05:57;;;;;;;122.38;43.75;;;;;;;;;;4995669;28;20046;-57
2023/02/28 03:08:22;;;;;;;134.93;44.50;;;;;;;;;;4979078;28;20506;-57
2023/02/28 03:10:49;;;;;;;153.35;47.78;;;;;;;;;;4983059;28;20078;-57
2023/02/28 03:13:20;;;;;;;165.07;49.88;;;;;;;;;;4976141;28;20042;-61
2023/02/28 03:15:55;;;;;;;153.67;45.10;;;;;;;;;;4975828;28;20197;-61
2023/02/28 03:18:29;;;;;;;232.25;63.53;;;;;;;;;;4993338;28;20069;-61
2023/02/28 03:21:05;;;;;;;218.88;61.50;;;;;;;;;;4976452;28;20417;-61
2023/02/28 03:23:39;;;;;;;171.05;51.80;;;;;;;;;;4993320;28;20045;-61
2023/02/28 03:26:22;;;;;;;162.88;52.13;;;;;;;;;;4991652;28;20042;-56
2023/02/28 03:29:03;;;;;;;186.90;61.78;;;;;;;;;;5012949;28;20034;-56
2023/02/28 03:31:47;;;;;;;127.32;43.53;;;;;;;;;;4994822;28;20080;-56
2023/02/28 03:34:25;;;;;;;188.05;63.63;;;;;;;;;;5012006;28;20030;-56
2023/02/28 03:36:53;;;;;;;124.15;45.55;;;;;;;;;;4973210;28;20047;-56
2023/02/28 03:39:42;;;;;;;114.13;41.72;;;;;;;;;;4972957;28;20049;-56
2023/02/28 03:42:27;;;;;;;114.53;41.10;;;;;;;;;;4965586;28;20843;-57
2023/02/28 03:45:19;;;;;;;73.45;28.98;;;;;;;;;;4973110;28;20065;-56
2023/02/28 03:47:44;;;;;;;78.95;31.20;;;;;;;;;;4985363;28;20074;-56
2023/02/28 03:50:10;;;;;;;77.50;32.37;;;;;;;;;;4992416;28;20478;-56
2023/02/28 03:52:39;;;;;;;95.90;36.45;;;;;;;;;;4992427;28;20762;-56
2023/02/28 03:55:09;;;;;;;88.10;38.00;;;;;;;;;;5004382;28;20038;-56
2023/02/28 03:57:40;;;;;;;76.95;34.03;;;;;;;;;;5005800;28;20124;-56
2023/02/28 04:00:08;;;;;;;57.70;25.45;;;;;;;;;;4974971;28;20493;-61
2023/02/28 04:02:39;;;;;;;50.50;23.95;;;;;;;;;;4992414;28;20046;-61
2023/02/28 04:05:05;;;;;;;47.92;21.15;;;;;;;;;;4992007;28;20042;-61
2023/02/28 04:07:31;;;;;;;34.35;17.40;;;;;;;;;;5010648;28;20462;-61
2023/02/28 04:09:56;;;;;;;34.20;15.57;;;;;;;;;;5012174;28;20033;-61
2023/02/28 04:12:22;;;;;;;53.85;24.70;;;;;;;;;;5012305;28;20046;-61
2023/02/28 04:14:48;;;;;;;42.50;21.75;;;;;;;;;;5011831;28;20041;-57
2023/02/28 04:17:13;;;;;;;27.83;16.92;;;;;;;;;;4994326;28;20108;-57
2023/02/28 04:19:39;;;;;;;21.45;14.02;;;;;;;;;;5012078;28;20042;-56
2023/02/28 04:22:04;;;;;;;24.95;16.65;;;;;;;;;;4993986;28;20026;-56
2023/02/28 04:24:29;;;;;;;18.85;14.07;;;;;;;;;;4992160;28;20065;-56
2023/02/28 04:26:57;;;;;;;15.35;10.45;;;;;;;;;;4974647;28;20042;-56
2023/02/28 04:29:25;;;;;;;13.02;8.90;;;;;;;;;;4992074;28;20049;-57
2023/02/28 04:31:52;;;;;;;17.15;11.73;;;;;;;;;;4992207;28;20047;-56
2023/02/28 04:34:18;;;;;;;14.93;10.48;;;;;;;;;;4991992;28;20042;-56
2023/02/28 04:36:45;;;;;;;14.98;9.93;;;;;;;;;;4995338;28;20022;-61
2023/02/28 04:39:11;;;;;;;17.73;10.10;;;;;;;;;;4998837;28;20486;-61
2023/02/28 04:41:36;;;;;;;17.67;11.25;;;;;;;;;;4993955;28;20034;-61
2023/02/28 04:44:01;;;;;;;14.40;10.23;;;;;;;;;;5011555;28;20054;-61
2023/02/28 04:46:27;;;;;;;17.17;10.60;;;;;;;;;;5010882;28;20398;-62
2023/02/28 04:48:54;;;;;;;17.95;10.35;;;;;;;;;;5010203;28;20042;-62
2023/02/28 04:51:19;;;;;;;18.23;11.25;;;;;;;;;;5010425;28;20034;-62
2023/02/28 04:53:45;;;;;;;17.38;10.73;;;;;;;;;;4995036;28;20042;-62
2023/02/28 04:56:15;;;;;;;16.25;10.65;;;;;;;;;;4995629;28;20049;-61
2023/02/28 04:58:40;;;;;;;17.70;11.43;;;;;;;;;;5005391;28;20034;-61
2023/02/28 05:01:26;;;;;;;20.55;14.10;;;;;;;;;;4990471;28;20061;-61
2023/02/28 05:03:52;;;;;;;19.27;12.68;;;;;;;;;;4990549;28;20038;-60
2023/02/28 05:06:17;;;;;;;18.60;12.52;;;;;;;;;;4991651;28;20030;-61
2023/02/28 05:08:43;;;;;;;17.10;11.98;;;;;;;;;;4970984;28;20185;-61
2023/02/28 05:11:18;;;;;;;15.73;11.13;;;;;;;;;;4990490;28;20030;-61
2023/02/28 05:13:43;;;;;;;16.83;11.80;;;;;;;;;;4971843;28;20042;-61
2023/02/28 05:16:09;;;;;;;27.00;15.70;;;;;;;;;;4972545;28;20043;-62
2023/02/28 05:18:34;;;;;;;28.92;16.33;;;;;;;;;;4983996;28;20041;-61
2023/02/28 05:21:02;;;;;;;28.88;15.77;;;;;;;;;;5014580;28;20137;-60
2023/02/28 05:23:28;;;;;;;22.90;14.38;;;;;;;;;;5014997;28;20049;-56
2023/02/28 05:25:54;;;;;;;18.02;11.82;;;;;;;;;;4997404;28;20038;-57
2023/02/28 05:28:19;;;;;;;16.25;10.07;;;;;;;;;;4996551;28;20461;-56
2023/02/28 05:30:44;;;;;;;18.90;11.23;;;;;;;;;;4996140;28;20030;-56
2023/02/28 05:33:10;;;;;;;16.55;10.18;;;;;;;;;;4993925;28;20073;-56
2023/02/28 05:35:37;;;;;;;17.90;11.23;;;;;;;;;;4993463;28;20053;-56
2023/02/28 05:38:03;;;;;;;22.30;11.80;;;;;;;;;;4993522;28;20494;-56
2023/02/28 05:40:28;;;;;;;19.58;12.07;;;;;;;;;;4993084;28;20037;-56
2023/02/28 05:42:53;;;;;;;20.00;11.43;;;;;;;;;;4993797;28;20117;-56
2023/02/28 05:45:19;;;;;;;15.07;10.10;;;;;;;;;;4975599;28;20050;-56
2023/02/28 05:47:44;;;;;;;25.95;10.32;;;;;;;;;;4993615;28;20030;-56
2023/02/28 05:50:10;;;;;;;17.38;9.32;;;;;;;;;;4994237;28;20044;-56
2023/02/28 05:52:37;;;;;;;48.90;24.38;;;;;;;;;;4993787;28;20069;-56
2023/02/28 05:55:02;;;;;;;75.55;37.60;;;;;;;;;;4996265;28;20053;-56
2023/02/28 05:57:28;;;;;;;54.38;30.58;;;;;;;;;;5012085;28;20414;-55
2023/02/28 05:59:55;;;;;;;30.90;19.42;;;;;;;;;;5014453;28;20033;-55
2023/02/28 06:02:21;;;;;;;20.13;14.75;;;;;;;;;;5014667;28;20050;-55
2023/02/28 06:04:47;;;;;;;20.50;13.32;;;;;;;;;;5014231;28;20077;-55
2023/02/28 06:07:13;;;;;;;27.23;18.85;;;;;;;;;;5014384;28;20069;-55
2023/02/28 06:09:38;;;;;;;23.58;17.27;;;;;;;;;;5015215;28;20473;-55
2023/02/28 06:12:10;;;;;;;25.10;16.30;;;;;;;;;;5015015;28;20110;-56
2023/02/28 06:14:36;;;;;;;69.55;58.00;;;;;;;;;;5014818;28;20887;-55
2023/02/28 06:17:03;;;;;;;21.05;12.32;;;;;;;;;;4997070;28;20572;-55
2023/02/28 06:19:30;;;;;;;19.90;12.45;;;;;;;;;;5014729;28;20122;-56
2023/02/28 06:21:56;;;;;;;23.42;13.52;;;;;;;;;;5014661;28;20127;-55
2023/02/28 06:24:23;;;;;;;25.98;14.73;;;;;;;;;;5011868;28;20041;-55
2023/02/28 06:26:48;;;;;;;21.65;14.55;;;;;;;;;;4993287;28;20097;-55
2023/02/28 06:29:16;;;;;;;20.05;13.95;;;;;;;;;;4993658;28;20454;-55
2023/02/28 06:31:43;;;;;;;26.83;16.85;;;;;;;;;;4976091;28;20042;-55
2023/02/28 06:34:11;;;;;;;23.85;15.13;;;;;;;;;;4994035;28;20057;-55
2023/02/28 06:36:37;;;;;;;23.88;15.48;;;;;;;;;;4993304;28;20046;-55
2023/02/28 06:42:37;;;;;;;21.80;13.48;;;;;;;;;;4996843;28;20095;-55
2023/02/28 06:48:37;;;;;;;20.83;13.57;;;;;;;;;;4994831;28;20716;-56
2023/02/28 06:51:04;;;;;;;22.23;13.20;;;;;;;;;;4992043;28;20038;-56
2023/02/28 06:53:29;;;;;;;30.23;16.77;;;;;;;;;;4993777;28;20088;-56
2023/02/28 06:55:54;;;;;;;31.20;21.05;;;;;;;;;;4994190;28;20031;-56
2023/02/28 06:58:20;;;;;;;79.28;42.63;;;;;;;;;;4994259;28;20034;-55
2023/02/28 07:00:45;;;;;;;143.98;87.88;;;;;;;;;;4994017;28;20046;-56
2023/02/28 07:03:12;;;;;;;22.23;13.65;;;;;;;;;;4994079;28;20038;-56
2023/02/28 07:05:37;;;;;;;22.75;13.65;;;;;;;;;;4977790;28;20054;-56
2023/02/28 07:11:37;;;;;;;22.13;14.70;;;;;;;;;;4996430;28;20053;-56
2023/02/28 07:21:52;;;;;;;29.00;20.58;;;;;;;;;;4996279;28;20037;-58
2023/02/28 07:28:06;;;;;;;15.52;10.48;;;;;;;;;;4996054;28;20049;-60
2023/02/28 07:34:07;;;;;;;23.45;14.40;;;;;;;;;;4995956;28;20060;-60
2023/02/28 07:40:13;;;;;;;14.93;9.48;;;;;;;;;;4995067;28;20117;-60
2023/02/28 07:46:15;;;;;;;12.75;8.80;;;;;;;;;;4995431;28;20106;-60
2023/02/28 07:52:15;;;;;;;12.70;8.63;;;;;;;;;;4995625;28;20095;-60
2023/02/28 07:58:15;;;;;;;15.35;11.25;;;;;;;;;;4995260;28;20054;-60
2023/02/28 08:04:16;;;;;;;34.92;15.95;;;;;;;;;;4995570;28;20037;-60
2023/02/28 08:10:16;;;;;;;20.17;12.32;;;;;;;;;;4995283;28;20026;-60
2023/02/28 08:26:36;;;;;;;12.77;9.27;;;;;;;;;;4990951;28;20107;-60
2023/02/28 08:32:36;;;;;;;34.75;19.20;;;;;;;;;;4994868;28;20378;-56
2023/02/28 08:38:37;;;;;;;14.52;10.88;;;;;;;;;;4994823;28;20085;-56
2023/02/28 08:44:37;;;;;;;19.23;10.40;;;;;;;;;;4994610;28;20048;-55
2023/02/28 08:50:38;;;;;;;12.30;9.15;;;;;;;;;;4993866;28;20617;-55
2023/02/28 08:56:39;;;;;;;13.18;8.88;;;;;;;;;;4994600;28;20417;-60
2023/02/28 09:02:40;;;;;;;11.20;8.52;;;;;;;;;;4994532;28;20029;-62
2023/02/28 09:08:41;;;;;;;11.30;8.15;;;;;;;;;;4994218;28;20037;-57
2023/02/28 09:14:41;;;;;;;14.70;11.05;;;;;;;;;;4994432;28;20120;-57
2023/02/28 09:24:56;;;;;;;35.13;31.55;;;;;;;;;;4994213;28;20583;-57
2023/02/28 09:30:58;;;;;;;20.45;15.45;;;;;;;;;;4994272;28;20081;-62
2023/02/28 09:36:58;;;;;;;12.77;11.45;;;;;;;;;;4994186;28;20089;-61
2023/02/28 09:42:59;;;;;;;17.50;14.43;;;;;;;;;;4994195;28;20119;-62
2023/02/28 09:49:01;;;;;;;14.55;11.18;;;;;;;;;;4994100;28;20034;-61
2023/02/28 09:55:14;;;;;;;55.28;45.03;;;;;;;;;;4994059;28;20138;-61
2023/02/28 10:01:26;;;;;;;25.90;17.95;;;;;;;;;;4993969;28;20382;-56
2023/02/28 10:07:45;;;;;;;11.48;8.57;;;;;;;;;;4997561;28;20397;-57
2023/02/28 10:13:45;;;;;;;20.10;13.40;;;;;;;;;;4997220;28;20029;-61
2023/02/28 10:23:44;;;;;;;10.40;7.22;;;;;;;;;;4997293;28;20095;-61
2023/02/28 10:29:46;;;;;;;9.70;8.10;;;;;;;;;;4997173;28;20438;-61
2023/02/28 10:35:45;;;;;;;10.27;8.13;;;;;;;;;;4997073;28;20048;-61
2023/02/28 10:41:45;;;;;;;11.55;9.23;;;;;;;;;;4996957;28;20114;-62
2023/02/28 10:47:50;;;;;;;10.80;8.95;;;;;;;;;;4996887;28;20124;-57
2023/02/28 10:53:54;;;;;;;11.00;6.95;;;;;;;;;;4996535;28;20314;-57
2023/02/28 11:00:14;;;;;;;8.10;6.78;;;;;;;;;;4996648;28;20085;-57
2023/02/28 11:06:17;;;;;;;9.25;6.78;;;;;;;;;;4996228;28;20101;-54
2023/02/28 11:12:29;;;;;;;6.68;5.55;;;;;;;;;;4996437;28;20037;-54
2023/02/28 11:18:32;;;;;;;9.00;7.95;;;;;;;;;;4991104;28;20029;-54
2023/02/28 11:39:53;;;;;;;9.70;6.60;;;;;;;;;;4995879;28;20512;-54
2023/02/28 11:45:54;;;;;;;16.05;10.48;;;;;;;;;;4995454;28;20076;-54
2023/02/28 11:51:55;;;;;;;14.48;9.38;;;;;;;;;;4995679;28;20024;-55
2023/02/28 12:08:46;;;;;;;21.58;15.00;;;;;;;;;;4973922;28;20082;-61
2023/02/28 12:14:52;;;;;;;9.23;7.45;;;;;;;;;;4973451;28;20150;-61
2023/02/28 12:20:57;;;;;;;14.77;10.88;;;;;;;;;;4973684;28;20029;-61
2023/02/28 12:34:58;;;;;;;10.57;7.30;;;;;;;;;;4994973;28;20122;-61
2023/02/28 12:40:58;;;;;;;24.15;10.25;;;;;;;;;;4994813;28;20085;-61
2023/02/28 12:47:01;;;;;;;25.95;18.17;;;;;;;;;;4994734;28;20084;-61
2023/02/28 12:53:10;;;;;;;11.10;6.65;;;;;;;;;;4994682;28;20553;-61
2023/02/28 12:59:14;;;;;;;10.80;8.13;;;;;;;;;;4994582;28;20088;-61
2023/02/28 13:05:33;;;;;;;11.43;7.63;;;;;;;;;;4994319;28;20573;-61
2023/02/28 13:11:34;;;;;;;14.07;8.85;;;;;;;;;;4994450;28;20029;-61
2023/02/28 13:17:34;;;;;;;14.02;10.05;;;;;;;;;;4994416;28;20085;-62
2023/02/28 13:23:38;;;;;;;11.40;7.95;;;;;;;;;;4994334;28;20053;-61
2023/02/28 13:33:29;;;;;;;11.50;7.50;;;;;;;;;;4994003;28;20031;-57
2023/02/28 13:39:36;;;;;;;9.43;6.88;;;;;;;;;;4998139;28;20538;-57
2023/02/28 13:45:38;;;;;;;12.38;8.05;;;;;;;;;;4997793;28;20041;-57
2023/02/28 13:51:41;;;;;;;10.27;7.90;;;;;;;;;;4997941;28;20437;-57
2023/02/28 13:58:01;;;;;;;49.58;33.08;;;;;;;;;;4997542;28;20544;-57
2023/02/28 14:04:20;;;;;;;58.53;37.65;;;;;;;;;;4997753;28;20030;-60
2023/02/28 14:10:27;;;;;;;69.53;38.58;;;;;;;;;;4997554;28;20118;-61
2023/02/28 14:23:52;;;;;;;31.50;21.92;;;;;;;;;;4975711;28;20407;-60
2023/02/28 14:26:38;;;;;;;25.65;17.48;;;;;;;;;;4975732;28;20047;-60
2023/02/28 14:36:54;;;;;;;11.15;9.45;;;;;;;;;;4975712;28;20093;-60
2023/02/28 14:42:55;;;;;;;12.93;10.00;;;;;;;;;;4975521;28;20030;-61
2023/02/28 14:45:21;;;;;;;14.80;9.85;;;;;;;;;;4974249;28;20469;-61
2023/02/28 14:47:48;;;;;;;15.77;9.50;;;;;;;;;;4971544;28;20043;-61
2023/02/28 14:50:18;;;;;;;17.38;11.05;;;;;;;;;;4996955;28;20050;-61
2023/02/28 14:52:43;;;;;;;20.70;11.77;;;;;;;;;;4993374;28;20047;-61
2023/02/28 14:55:15;;;;;;;30.73;16.85;;;;;;;;;;4993353;28;20038;-61
2023/02/28 14:57:41;;;;;;;31.02;20.05;;;;;;;;;;4975880;28;20050;-61
2023/02/28 15:00:13;;;;;;;24.75;17.50;;;;;;;;;;4993005;28;20475;-61
2023/02/28 15:02:39;;;;;;;24.15;14.07;;;;;;;;;;4975749;28;20390;-64
2023/02/28 15:05:26;;;;;;;20.15;11.95;;;;;;;;;;4993289;28;20108;-60
2023/02/28 15:08:03;;;;;;;13.15;8.63;;;;;;;;;;4993442;28;20482;-61
2023/02/28 15:10:28;;;;;;;16.30;11.20;;;;;;;;;;4993120;28;20053;-61
2023/02/28 15:12:58;;;;;;;15.63;10.43;;;;;;;;;;4993113;28;20034;-56
2023/02/28 15:15:42;;;;;;;13.47;9.40;;;;;;;;;;4975878;28;20414;-56
2023/02/28 15:18:10;;;;;;;12.18;8.93;;;;;;;;;;4993148;28;20277;-56
2023/02/28 15:20:38;;;;;;;10.82;8.93;;;;;;;;;;4992253;28;20046;-57
2023/02/28 15:23:03;;;;;;;13.30;9.18;;;;;;;;;;4992424;28;20042;-56
2023/02/28 15:25:29;;;;;;;16.65;11.45;;;;;;;;;;4992921;28;20039;-60
2023/02/28 15:27:56;;;;;;;20.55;18.27;;;;;;;;;;4992940;28;20077;-56
2023/02/28 15:30:25;;;;;;;41.17;32.63;;;;;;;;;;4992988;28;20049;-56
2023/02/28 15:33:05;;;;;;;83.30;67.80;;;;;;;;;;4993734;28;20054;-56
2023/02/28 15:35:31;;;;;;;33.83;25.17;;;;;;;;;;4992311;28;20053;-56
2023/02/28 15:37:59;;;;;;;37.67;22.05;;;;;;;;;;4976727;28;20363;-56
2023/02/28 15:40:28;;;;;;;20.00;13.30;;;;;;;;;;4991778;28;20176;-56
2023/02/28 15:43:04;;;;;;;32.47;20.55;;;;;;;;;;4992226;28;20121;-56
2023/02/28 15:45:48;;;;;;;32.95;19.38;;;;;;;;;;4991779;28;20050;-56
2023/02/28 15:48:17;;;;;;;21.35;13.50;;;;;;;;;;4991005;28;20057;-56
2023/02/28 15:50:42;;;;;;;21.42;13.30;;;;;;;;;;4990700;28;20702;-56
2023/02/28 15:53:16;;;;;;;42.63;23.05;;;;;;;;;;4973038;28;20035;-56
2023/02/28 15:55:41;;;;;;;58.58;31.88;;;;;;;;;;4973863;28;20109;-56
2023/02/28 16:01:42;;;;;;;75.07;35.95;;;;;;;;;;4994925;28;20394;-55
2023/02/28 16:07:45;;;;;;;94.50;46.63;;;;;;;;;;4995085;28;20502;-56
2023/02/28 16:13:44;;;;;;;243.20;163.15;;;;;;;;;;4995244;28;20030;-56
2023/02/28 16:16:16;;;;;;;232.55;144.93;;;;;;;;;;4995163;28;20038;-56
2023/02/28 16:18:41;;;;;;;294.90;173.35;;;;;;;;;;4989555;28;20042;-56
2023/02/28 16:21:06;;;;;;;494.27;336.40;;;;;;;;;;4989884;28;20042;-56
2023/02/28 16:23:31;;;;;;;539.83;344.60;;;;;;;;;;4990509;28;20043;-56
2023/02/28 16:25:58;;;;;;;280.33;156.95;;;;;;;;;;4991522;28;20030;-56
2023/02/28 16:28:25;;;;;;;558.70;399.67;;;;;;;;;;4974425;28;20406;-56
2023/02/28 16:30:52;;;;;;;323.95;200.85;;;;;;;;;;4991605;28;20061;-56
2023/02/28 16:33:17;;;;;;;304.25;143.77;;;;;;;;;;4991259;28;20116;-55
2023/02/28 16:35:44;;;;;;;78.57;39.00;;;;;;;;;;4991119;28;20042;-55
2023/02/28 16:38:09;;;;;;;134.30;55.83;;;;;;;;;;4990780;28;20104;-55
2023/02/28 16:40:35;;;;;;;165.93;71.60;;;;;;;;;;4989768;28;20046;-60
2023/02/28 16:43:04;;;;;;;161.02;72.18;;;;;;;;;;4990093;28;20030;-60
2023/02/28 16:45:30;;;;;;;134.73;59.10;;;;;;;;;;4989710;28;20044;-60
2023/02/28 16:47:55;;;;;;;105.22;46.95;;;;;;;;;;4993738;28;20411;-60
2023/02/28 16:50:25;;;;;;;179.07;72.15;;;;;;;;;;4994436;28;20031;-60
2023/02/28 16:52:52;;;;;;;119.20;47.95;;;;;;;;;;4990200;28;20038;-61
2023/02/28 16:55:17;;;;;;;74.65;31.42;;;;;;;;;;4989046;28;20042;-62
2023/02/28 16:57:43;;;;;;;163.95;68.38;;;;;;;;;;4990716;28;20045;-61
2023/02/28 17:00:11;;;;;;;161.00;74.95;;;;;;;;;;4990461;28;20042;-62
2023/02/28 17:02:36;;;;;;;43.55;24.55;;;;;;;;;;4990207;28;20603;-62
2023/02/28 17:05:02;;;;;;;38.17;23.25;;;;;;;;;;4990581;28;20125;-63
2023/02/28 17:07:27;;;;;;;45.25;26.77;;;;;;;;;;4991047;28;20497;-63
2023/02/28 17:09:52;;;;;;;51.15;28.73;;;;;;;;;;4972952;28;20038;-62
2023/02/28 17:12:18;;;;;;;77.28;38.13;;;;;;;;;;4988476;28;20037;-61
2023/02/28 17:14:44;;;;;;;46.63;25.17;;;;;;;;;;5012365;28;20109;-61
2023/02/28 17:17:17;;;;;;;107.25;42.00;;;;;;;;;;5012200;28;20124;-61
2023/02/28 17:19:43;;;;;;;124.10;46.25;;;;;;;;;;5011841;28;20045;-61
2023/02/28 17:22:11;;;;;;;159.50;63.10;;;;;;;;;;5012190;28;20053;-61
2023/02/28 17:24:36;;;;;;;228.65;86.95;;;;;;;;;;5011634;28;20390;-62
2023/02/28 17:27:02;;;;;;;260.13;93.40;;;;;;;;;;4995507;28;20041;-62
2023/02/28 17:29:27;;;;;;;159.82;62.72;;;;;;;;;;4991923;28;20042;-61
2023/02/28 17:31:53;;;;;;;146.38;55.92;;;;;;;;;;4991918;28;20045;-61
2023/02/28 17:34:19;;;;;;;157.75;61.38;;;;;;;;;;4990246;28;20030;-61
2023/02/28 17:36:46;;;;;;;251.48;91.55;;;;;;;;;;4989043;28;20394;-61
2023/02/28 17:39:13;;;;;;;206.18;82.10;;;;;;;;;;4992389;28;20431;-61
2023/02/28 17:41:41;;;;;;;161.00;69.38;;;;;;;;;;4991776;28;20038;-61
2023/02/28 17:44:06;;;;;;;189.40;89.32;;;;;;;;;;4992243;28;20096;-56
2023/02/28 17:46:32;;;;;;;218.57;108.30;;;;;;;;;;4992006;28;20038;-56
2023/02/28 17:48:57;;;;;;;188.90;89.88;;;;;;;;;;4991966;28;20035;-56
2023/02/28 17:51:24;;;;;;;182.63;91.28;;;;;;;;;;4991775;28;20387;-56
2023/02/28 17:53:49;;;;;;;189.02;95.53;;;;;;;;;;4991797;28;20034;-56
2023/02/28 17:56:16;;;;;;;167.48;80.78;;;;;;;;;;4992413;28;20382;-56
2023/02/28 17:58:41;;;;;;;249.88;136.80;;;;;;;;;;4991462;28;20042;-56
2023/02/28 18:01:07;;;;;;;254.15;137.20;;;;;;;;;;4992175;28;20038;-56
2023/02/28 18:03:32;;;;;;;149.30;84.13;;;;;;;;;;4992100;28;20466;-56
2023/02/28 18:05:58;;;;;;;112.90;57.22;;;;;;;;;;4991250;28;20143;-61
2023/02/28 18:08:24;;;;;;;152.18;74.40;;;;;;;;;;4991780;28;20554;-61
2023/02/28 18:10:49;;;;;;;209.45;107.75;;;;;;;;;;4974268;28;20038;-61
2023/02/28 18:13:14;;;;;;;193.18;99.72;;;;;;;;;;4990815;28;20038;-61
2023/02/28 18:15:40;;;;;;;127.43;66.75;;;;;;;;;;4990671;28;20102;-61
2023/02/28 18:18:06;;;;;;;67.15;36.00;;;;;;;;;;4990661;28;20394;-61
2023/02/28 18:20:32;;;;;;;79.40;42.80;;;;;;;;;;4990519;28;20480;-61
2023/02/28 18:22:57;;;;;;;167.70;78.88;;;;;;;;;;4991557;28;20104;-61
2023/02/28 18:25:23;;;;;;;166.13;76.97;;;;;;;;;;4995548;28;20078;-61
2023/02/28 18:27:57;;;;;;;88.53;50.13;;;;;;;;;;4995751;28;20054;-61
2023/02/28 18:30:24;;;;;;;106.38;64.90;;;;;;;;;;4995699;28;20034;-61
2023/02/28 18:32:49;;;;;;;65.75;36.53;;;;;;;;;;4995233;28;20050;-61
2023/02/28 18:35:33;;;;;;;115.97;58.15;;;;;;;;;;4995522;28;20034;-61
2023/02/28 18:37:58;;;;;;;109.00;60.70;;;;;;;;;;4994810;28;20042;-61
2023/02/28 18:40:23;;;;;;;105.63;59.08;;;;;;;;;;4994565;28;20052;-61
2023/02/28 18:42:52;;;;;;;89.82;51.63;;;;;;;;;;4994802;28;20050;-61
2023/02/28 18:45:17;;;;;;;183.30;95.47;;;;;;;;;;4994747;28;20410;-61
2023/02/28 18:47:42;;;;;;;89.55;48.15;;;;;;;;;;4994354;28;20039;-56
2023/02/28 18:53:43;;;;;;;87.70;46.42;;;;;;;;;;4996590;28;20100;-56
2023/02/28 18:59:43;;;;;;;138.93;72.72;;;;;;;;;;4996671;28;20042;-56
2023/02/28 19:05:45;;;;;;;182.05;83.70;;;;;;;;;;4996388;28;20572;-56
2023/02/28 19:11:45;;;;;;;170.13;86.43;;;;;;;;;;4996465;28;20081;-56
2023/02/28 19:17:45;;;;;;;147.90;78.80;;;;;;;;;;4996107;28;20029;-56
2023/02/28 19:23:45;;;;;;;141.15;66.82;;;;;;;;;;4996275;28;20021;-55
2023/02/28 19:29:48;;;;;;;111.00;56.17;;;;;;;;;;4996138;28;20033;-55
2023/02/28 19:40:03;;;;;;;;;;;;;;;;;;4976998;28;20034;-56
2023/02/28 19:46:17;;;;;;;118.05;57.85;;;;;;;;;;4995582;28;20045;-56
2023/02/28 19:52:18;;;;;;;179.07;77.30;;;;;;;;;;4995706;28;20081;-56
2023/02/28 19:58:19;;;;;;;114.05;53.30;;;;;;;;;;4995595;28;20113;-56
2023/02/28 20:04:19;;;;;;;74.55;38.45;;;;;;;;;;4995525;28;20025;-56
2023/02/28 20:10:19;;;;;;;369.42;177.80;;;;;;;;;;4995426;28;20142;-56
2023/02/28 20:16:20;;;;;;;125.28;67.07;;;;;;;;;;4995286;28;20037;-56
2023/02/28 20:22:20;;;;;;;106.50;56.30;;;;;;;;;;4994950;28;20037;-56
2023/02/28 20:28:20;;;;;;;165.75;82.20;;;;;;;;;;4995121;28;20465;-56
2023/02/28 20:34:22;;;;;;;230.40;116.72;;;;;;;;;;4994780;28;20029;-61
2023/02/28 20:40:37;;;;;;;200.10;107.70;;;;;;;;;;4994652;28;20097;-61
2023/02/28 20:46:37;;;;;;;122.05;66.18;;;;;;;;;;4994399;28;20128;-61
2023/02/28 20:52:37;;;;;;;134.52;75.30;;;;;;;;;;4994676;28;20029;-61
2023/02/28 20:58:38;;;;;;;141.30;71.82;;;;;;;;;;4994364;28;20033;-55
2023/02/28 21:04:38;;;;;;;154.52;77.28;;;;;;;;;;4994768;28;20040;-60